createdAt,value
2022-08-17T00:01:15.336Z,22.8
2022-08-17T00:21:16.533Z,22.5
2022-08-17T00:31:17.533Z,22.4
2022-08-17T00:51:18.449Z,21.9
2022-08-17T01:01:21.152Z,21.6
2022-08-17T01:11:19.885Z,21.3
2022-08-17T01:41:20.458Z,20.8
2022-08-17T01:51:21.190Z,20.6
2022-08-17T02:01:21.991Z,20.5
2022-08-17T02:11:22.602Z,20.4
2022-08-17T02:31:23.015Z,20
2022-08-17T02:51:23.665Z,19.8
2022-08-17T03:01:24.026Z,19.9
2022-08-17T03:11:24.871Z,20
2022-08-17T03:21:25.511Z,20.2
2022-08-17T03:31:26.045Z,20.2
2022-08-17T03:41:26.711Z,20.3
2022-08-17T03:51:26.993Z,20.3
2022-08-17T04:01:28.015Z,20.4
2022-08-17T04:11:29.031Z,20.6
2022-08-17T04:21:29.151Z,20.6
2022-08-17T04:31:29.540Z,20.7
2022-08-17T04:41:29.645Z,20.7
2022-08-17T04:51:30.118Z,20.8
2022-08-17T05:01:30.454Z,21.1
2022-08-17T05:04:21.230Z,21.1
2022-08-17T05:11:39.161Z,21.1
2022-08-17T05:21:39.467Z,21.4
2022-08-17T05:31:40.417Z,21.7
2022-08-17T05:41:40.568Z,22
2022-08-17T05:51:40.900Z,22.2
2022-08-17T06:01:41.896Z,22.4
2022-08-17T06:11:42.088Z,22.4
2022-08-17T06:31:43.704Z,22.6
2022-08-17T06:41:43.886Z,22.8
2022-08-17T06:51:44.227Z,22.8
2022-08-17T07:01:44.423Z,22.8
2022-08-17T07:11:45.046Z,22.9
2022-08-17T07:21:45.689Z,22.9
2022-08-17T07:31:46.487Z,23
2022-08-17T07:41:52.990Z,23.3
2022-08-17T07:51:47.562Z,23.5
2022-08-17T08:01:48.380Z,24
2022-08-17T08:11:48.456Z,24.6
2022-08-17T08:21:48.850Z,24.7
2022-08-17T08:31:49.644Z,25.1
2022-08-17T08:41:50.646Z,25.4
2022-08-17T08:51:51.625Z,25.8
2022-08-17T09:01:52.304Z,26.3
2022-08-17T09:12:01.678Z,26.3
2022-08-17T09:21:52.808Z,26.4
2022-08-17T09:31:53.637Z,26.2
2022-08-17T09:41:54.558Z,26
2022-08-17T09:51:55.580Z,26
2022-08-17T10:01:55.815Z,25.8
2022-08-17T10:11:56.178Z,25.7
2022-08-17T10:31:57.730Z,25.7
2022-08-17T11:11:59.124Z,24.9
2022-08-17T11:21:59.742Z,24.5
2022-08-17T11:32:00.382Z,24.2
2022-08-17T11:42:00.765Z,24.2
2022-08-17T11:52:01.647Z,24.1
2022-08-17T12:02:02.373Z,24.1
2022-08-17T12:22:03.695Z,23.7
2022-08-17T12:32:04.216Z,23.9
2022-08-17T12:42:04.468Z,24.4
2022-08-17T12:52:05.192Z,24.7
2022-08-17T13:02:06.244Z,24.9
2022-08-17T13:22:07.180Z,25.7
2022-08-17T13:32:11.599Z,25.9
2022-08-17T13:42:10.174Z,26.5
2022-08-17T13:52:08.397Z,26.5
2022-08-17T14:02:08.652Z,26.7
2022-08-17T14:12:08.760Z,26.9
2022-08-17T14:22:09.000Z,27.1
2022-08-17T14:32:09.670Z,26.7
2022-08-17T14:42:10.585Z,26.6
2022-08-17T14:52:11.351Z,26.3
2022-08-17T15:12:12.453Z,25.9
2022-08-17T15:52:14.158Z,25.9
2022-08-17T16:12:15.252Z,25.4
2022-08-17T16:32:16.623Z,25.2
2022-08-17T16:52:32.244Z,25.2
2022-08-17T17:02:18.258Z,25.1
2022-08-17T17:22:19.562Z,24.7
2022-08-17T17:32:20.344Z,24.7
2022-08-17T17:52:21.289Z,24.4
2022-08-17T18:02:21.831Z,24.2
2022-08-17T18:12:22.469Z,23.9
2022-08-17T18:22:22.990Z,23.7
2022-08-17T18:32:23.781Z,23.5
2022-08-17T18:42:24.679Z,23.3
2022-08-17T18:52:25.458Z,23.1
2022-08-17T19:02:44.063Z,22.9
2022-08-17T19:12:27.453Z,22.7
2022-08-17T19:22:28.598Z,22.6
2022-08-17T19:32:28.125Z,22.4
2022-08-17T19:42:28.863Z,22.3
2022-08-17T19:52:29.098Z,22
2022-08-17T20:02:29.778Z,21.9
2022-08-17T20:12:30.725Z,21.7
2022-08-17T20:22:30.966Z,21.7
2022-08-17T20:32:31.791Z,21.5
2022-08-17T21:52:37.554Z,20.5
